createdAt,value
2022-09-28T00:02:09.632Z,98483.88
2022-09-28T00:05:13.172Z,98473.69
2022-09-28T00:08:17.475Z,98461.13
2022-09-28T00:11:22.037Z,98462.00
2022-09-28T00:14:25.213Z,98453.53
2022-09-28T00:17:28.254Z,98441.13
2022-09-28T00:20:31.238Z,98438.25
2022-09-28T00:23:56.777Z,98430.41
2022-09-28T00:27:01.648Z,98430.41
2022-09-28T00:30:05.069Z,98425.09
2022-09-28T00:33:07.996Z,98419.56
2022-09-28T00:36:10.652Z,98419.78
2022-09-28T00:39:16.873Z,98398.81
2022-09-28T00:42:21.129Z,98410.91
2022-09-28T00:45:26.756Z,98394.66
2022-09-28T00:48:33.991Z,98386.03
2022-09-28T00:51:39.342Z,98385.28
2022-09-28T00:54:46.925Z,98384.56
2022-09-28T00:57:55.553Z,98372.88
2022-09-28T01:01:00.042Z,98367.88
2022-09-28T01:04:05.229Z,98355.59
2022-09-28T01:07:10.116Z,98354.22
2022-09-28T01:10:15.487Z,98351.50
2022-09-28T01:13:19.827Z,98349.78
2022-09-28T01:16:32.358Z,98357.91
2022-09-28T01:20:07.806Z,98345.22
2022-09-28T01:23:30.368Z,98344.38
2022-09-28T01:26:47.998Z,98346.31
2022-09-28T01:29:58.038Z,98340.91
2022-09-28T01:33:07.331Z,98330.84
2022-09-28T01:36:14.878Z,98334.28
2022-09-28T01:39:22.834Z,98338.94
2022-09-28T01:42:32.436Z,98324.88
2022-09-28T01:45:42.962Z,98313.44
2022-09-28T01:48:52.049Z,98304.59
2022-09-28T01:52:02.439Z,98305.44
2022-09-28T01:55:11.703Z,98287.50
2022-09-28T01:58:20.265Z,98273.00
2022-09-28T02:01:28.205Z,98276.16
2022-09-28T02:04:36.068Z,98266.31
2022-09-28T02:07:42.800Z,98264.59
2022-09-28T02:10:52.807Z,98263.06
2022-09-28T02:14:02.003Z,98261.38
2022-09-28T02:17:05.498Z,98257.53
2022-09-28T02:20:10.290Z,98254.94
2022-09-28T02:23:13.085Z,98253.69
2022-09-28T02:26:20.221Z,98245.38
2022-09-28T02:29:25.002Z,98230.63
2022-09-28T02:32:29.838Z,98229.66
2022-09-28T02:35:35.361Z,98233.97
2022-09-28T02:38:39.297Z,98234.84
2022-09-28T02:41:55.867Z,98240.13
2022-09-28T02:45:13.843Z,98239.03
2022-09-28T02:48:42.761Z,98237.19
2022-09-28T02:51:57.463Z,98231.91
2022-09-28T02:55:25.158Z,98233.75
2022-09-28T02:58:41.335Z,98223.81
2022-09-28T03:01:59.468Z,98219.38
2022-09-28T03:05:15.208Z,98193.63
2022-09-28T03:08:24.665Z,98209.41
2022-09-28T03:11:33.505Z,98215.81
2022-09-28T03:14:36.770Z,98205.84
2022-09-28T03:17:41.485Z,98196.88
2022-09-28T03:20:44.501Z,98197.72
2022-09-28T03:23:48.411Z,98191.19
2022-09-28T03:26:51.099Z,98195.88
2022-09-28T03:29:53.768Z,98193.19
2022-09-28T03:33:02.479Z,98188.66
2022-09-28T03:36:05.555Z,98189.16
2022-09-28T03:39:08.564Z,98202.44
2022-09-28T03:42:11.305Z,98196.78
2022-09-28T03:45:14.472Z,98193.84
2022-09-28T03:48:23.171Z,98180.53
2022-09-28T03:51:27.460Z,98171.47
2022-09-28T03:54:30.252Z,98169.50
2022-09-28T03:57:33.425Z,98180.06
2022-09-28T04:00:36.439Z,98178.13
2022-09-28T04:03:40.792Z,98186.00
2022-09-28T04:06:43.789Z,98177.88
2022-09-28T04:09:46.429Z,98177.78
2022-09-28T04:12:50.270Z,98175.06
2022-09-28T04:15:54.519Z,98165.09
2022-09-28T04:18:59.446Z,98164.63
2022-09-28T04:22:02.666Z,98164.84
2022-09-28T04:25:06.013Z,98173.19
2022-09-28T04:28:27.731Z,98185.97
2022-09-28T04:31:30.815Z,98187.47
2022-09-28T04:34:37.869Z,98187.09
2022-09-28T04:37:42.821Z,98182.31
2022-09-28T04:40:45.881Z,98189.69
2022-09-28T04:43:49.000Z,98185.47
2022-09-28T04:46:52.123Z,98195.72
2022-09-28T04:49:56.101Z,98197.25
2022-09-28T04:52:59.097Z,98195.94
2022-09-28T04:56:04.142Z,98197.78
2022-09-28T04:59:07.047Z,98201.06
2022-09-28T05:02:09.754Z,98204.25
2022-09-28T05:05:14.017Z,98207.53
2022-09-28T05:08:17.075Z,98211.56
2022-09-28T05:11:21.352Z,98209.25
2022-09-28T05:14:24.866Z,98213.69
2022-09-28T05:17:27.542Z,98225.28
2022-09-28T05:20:32.685Z,98218.91
2022-09-28T05:23:35.342Z,98218.03
2022-09-28T05:26:38.078Z,98230.88
2022-09-28T05:29:40.750Z,98228.16
2022-09-28T05:32:44.620Z,98228.50
2022-09-28T05:35:53.354Z,98233.03
2022-09-28T05:38:57.728Z,98233.03
2022-09-28T05:42:00.359Z,98239.19
2022-09-28T05:45:04.740Z,98232.72
2022-09-28T05:48:07.468Z,98237.47
2022-09-28T05:51:12.423Z,98242.31
2022-09-28T05:54:15.533Z,98239.31
2022-09-28T05:57:18.740Z,98244.09
2022-09-28T06:00:21.390Z,98249.78
2022-09-28T06:03:25.178Z,98251.22
2022-09-28T06:06:29.170Z,98260.59
2022-09-28T06:09:32.273Z,98263.00
2022-09-28T06:12:35.595Z,98270.66
2022-09-28T06:15:39.067Z,98260.81
2022-09-28T06:18:42.905Z,98266.94
2022-09-28T06:21:48.333Z,98275.59
2022-09-28T06:24:51.386Z,98274.03
2022-09-28T06:27:58.740Z,98283.03
2022-09-28T06:31:02.536Z,98295.13
2022-09-28T06:34:06.003Z,98290.47
2022-09-28T06:37:09.994Z,98300.13
2022-09-28T06:40:12.800Z,98300.69
2022-09-28T06:43:16.529Z,98304.53
2022-09-28T06:46:20.839Z,98307.75
2022-09-28T06:49:23.860Z,98304.59
2022-09-28T06:52:28.233Z,98304.50
2022-09-28T06:55:31.563Z,98310.66
2022-09-28T06:58:34.655Z,98312.63
2022-09-28T07:01:37.687Z,98306.44
2022-09-28T07:04:42.132Z,98309.22
2022-09-28T07:07:46.164Z,98306.09
2022-09-28T07:10:56.275Z,98315.91
2022-09-28T07:13:59.053Z,98319.63
2022-09-28T07:17:13.285Z,98323.00
2022-09-28T07:20:19.426Z,98330.47
2022-09-28T07:23:24.268Z,98340.31
2022-09-28T07:26:26.960Z,98333.59
2022-09-28T07:29:29.623Z,98332.00
2022-09-28T07:32:34.883Z,98339.84
2022-09-28T07:35:37.558Z,98343.59
2022-09-28T07:38:41.802Z,98338.84
2022-09-28T07:41:44.879Z,98344.41
2022-09-28T07:44:47.739Z,98347.53
2022-09-28T07:47:50.951Z,98349.97
2022-09-28T07:50:56.765Z,98351.50
2022-09-28T07:54:01.598Z,98358.38
2022-09-28T07:57:04.270Z,98362.59
2022-09-28T08:00:09.042Z,98360.94
2022-09-28T08:03:11.711Z,98377.72
2022-09-28T08:06:17.070Z,98364.22
2022-09-28T08:09:21.248Z,98379.28
2022-09-28T08:12:23.928Z,98369.09
2022-09-28T08:15:27.580Z,98377.59
2022-09-28T08:18:30.488Z,98390.16
2022-09-28T08:21:47.739Z,98388.06
2022-09-28T08:24:51.772Z,98385.72
2022-09-28T08:27:56.816Z,98394.06
2022-09-28T08:31:01.978Z,98391.50
2022-09-28T08:34:05.268Z,98396.06
2022-09-28T08:37:09.510Z,98396.91
2022-09-28T08:40:19.921Z,98400.63
2022-09-28T08:43:39.651Z,98391.84
2022-09-28T08:46:46.809Z,98405.53
2022-09-28T08:49:51.018Z,98400.47
2022-09-28T08:52:58.408Z,98409.63
2022-09-28T08:56:07.158Z,98408.38
2022-09-28T08:59:14.302Z,98403.66
2022-09-28T09:02:22.327Z,98405.88
2022-09-28T09:05:43.772Z,98406.09
2022-09-28T09:09:00.092Z,98407.72
2022-09-28T09:12:11.799Z,98416.47
2022-09-28T09:15:30.210Z,98416.59
2022-09-28T09:18:38.505Z,98421.75
2022-09-28T09:21:42.868Z,98428.47
2022-09-28T09:24:51.585Z,98427.53
2022-09-28T09:28:09.455Z,98431.50
2022-09-28T09:31:27.139Z,98433.19
2022-09-28T09:35:00.144Z,98427.81
2022-09-28T09:38:16.204Z,98437.72
2022-09-28T09:41:33.730Z,98438.69
2022-09-28T09:44:55.078Z,98442.56
2022-09-28T09:48:01.690Z,98443.25
2022-09-28T09:51:14.041Z,98450.56
2022-09-28T09:54:25.485Z,98440.19
2022-09-28T09:57:33.223Z,98446.03
2022-09-28T10:00:40.890Z,98440.31
2022-09-28T10:03:46.393Z,98442.28
2022-09-28T10:06:52.672Z,98454.06
2022-09-28T10:09:59.257Z,98441.66
2022-09-28T10:13:02.703Z,98441.53
2022-09-28T10:16:08.071Z,98436.09
2022-09-28T10:19:13.451Z,98434.47
2022-09-28T10:22:21.774Z,98433.50
2022-09-28T10:25:25.263Z,98440.16
2022-09-28T10:28:36.667Z,98443.19
2022-09-28T10:31:43.052Z,98446.31
2022-09-28T10:34:50.185Z,98440.69
2022-09-28T10:37:59.388Z,98448.25
2022-09-28T10:41:10.331Z,98448.44
2022-09-28T10:44:18.888Z,98453.13
2022-09-28T10:47:25.263Z,98452.88
2022-09-28T10:50:29.485Z,98445.66
2022-09-28T10:53:32.456Z,98447.66
2022-09-28T10:56:38.498Z,98440.91
2022-09-28T10:59:43.080Z,98438.25
2022-09-28T11:02:47.396Z,98437.34
2022-09-28T11:05:58.896Z,98436.97
2022-09-28T11:09:04.606Z,98436.28
2022-09-28T11:12:14.782Z,98438.28
2022-09-28T11:15:20.247Z,98439.84
2022-09-28T11:18:29.625Z,98430.91
2022-09-28T11:21:43.302Z,98438.00
2022-09-28T11:24:45.991Z,98435.81
2022-09-28T11:27:58.210Z,98433.75
2022-09-28T11:31:02.586Z,98425.53
2022-09-28T11:34:15.888Z,98435.72
2022-09-28T11:37:40.229Z,98417.75
2022-09-28T11:40:55.447Z,98422.75
2022-09-28T11:44:12.997Z,98421.91
2022-09-28T11:47:34.501Z,98413.94
2022-09-28T11:50:47.774Z,98421.41
2022-09-28T11:53:53.771Z,98418.53
2022-09-28T11:57:00.874Z,98432.00
2022-09-28T12:00:08.391Z,98426.41
2022-09-28T12:03:16.161Z,98436.31
2022-09-28T12:06:26.267Z,98426.84
2022-09-28T12:09:40.169Z,98438.19
2022-09-28T12:12:49.040Z,98430.00
2022-09-28T12:16:38.464Z,98435.59
2022-09-28T12:19:25.899Z,98442.47
2022-09-28T12:22:36.452Z,98430.84
2022-09-28T12:25:46.207Z,98438.59
2022-09-28T12:28:51.443Z,98432.28
2022-09-28T12:32:02.720Z,98436.75
2022-09-28T12:35:12.824Z,98408.28
2022-09-28T12:38:39.816Z,98434.38
2022-09-28T12:41:55.981Z,98435.34
2022-09-28T12:45:18.920Z,98433.63
2022-09-28T12:49:03.033Z,98436.66
2022-09-28T12:52:27.957Z,98427.59
2022-09-28T12:55:52.169Z,98433.06
2022-09-28T12:59:07.550Z,98423.91
2022-09-28T13:02:38.432Z,98432.53
2022-09-28T13:06:09.805Z,98427.97
2022-09-28T13:09:20.515Z,98430.25
2022-09-28T13:12:35.921Z,98427.56
2022-09-28T13:15:49.036Z,98411.63
2022-09-28T13:19:01.721Z,98429.84
2022-09-28T13:22:26.088Z,98415.94
2022-09-28T13:25:32.604Z,98417.81
2022-09-28T13:28:38.325Z,98416.53
2022-09-28T13:31:45.713Z,98423.94
2022-09-28T13:34:51.281Z,98416.03
2022-09-28T13:38:27.196Z,98425.63
2022-09-28T13:41:32.442Z,98420.78
2022-09-28T13:44:55.137Z,98421.91
2022-09-28T13:48:14.704Z,98418.47
2022-09-28T13:51:32.109Z,98423.38
2022-09-28T13:54:54.601Z,98421.53
2022-09-28T13:58:01.620Z,98424.84
2022-09-28T14:01:11.461Z,98425.25
2022-09-28T14:04:19.453Z,98411.50
2022-09-28T14:07:25.572Z,98408.78
2022-09-28T14:10:52.001Z,98419.09
2022-09-28T14:14:07.225Z,98415.09
2022-09-28T14:17:54.687Z,98426.13
2022-09-28T14:21:36.044Z,98427.72
2022-09-28T14:25:04.395Z,98410.63
2022-09-28T14:28:26.950Z,98416.19
2022-09-28T14:31:31.198Z,98418.09
2022-09-28T14:34:36.477Z,98421.38
2022-09-28T14:38:00.759Z,98427.09
2022-09-28T14:41:12.808Z,98419.63
2022-09-28T14:44:17.277Z,98432.28
2022-09-28T14:47:35.180Z,98431.41
2022-09-28T14:50:39.005Z,98432.69
2022-09-28T14:53:43.331Z,98430.41
2022-09-28T14:56:57.053Z,98436.84
2022-09-28T15:00:01.011Z,98441.84
2022-09-28T15:03:11.416Z,98438.09
2022-09-28T15:06:16.856Z,98442.53
2022-09-28T15:09:29.298Z,98451.75
2022-09-28T15:12:32.486Z,98452.63
2022-09-28T15:15:38.591Z,98455.69
2022-09-28T15:19:04.104Z,98459.72
2022-09-28T15:22:15.855Z,98461.28
2022-09-28T15:25:21.832Z,98473.88
2022-09-28T15:28:25.301Z,98464.63
2022-09-28T15:31:31.844Z,98471.22
2022-09-28T15:34:54.724Z,98481.66
2022-09-28T15:37:57.768Z,98476.41
2022-09-28T15:41:04.653Z,98482.16
2022-09-28T15:44:32.967Z,98483.63
2022-09-28T15:47:40.082Z,98479.41
2022-09-28T15:50:58.042Z,98482.16
2022-09-28T15:54:04.313Z,98486.16
2022-09-28T15:57:30.012Z,98488.31
2022-09-28T16:00:33.305Z,98493.03
2022-09-28T16:03:35.945Z,98499.56
2022-09-28T16:06:38.629Z,98502.66
2022-09-28T16:09:55.663Z,98497.84
2022-09-28T16:13:15.707Z,98508.69
2022-09-28T16:16:18.607Z,98512.88
2022-09-28T16:19:25.348Z,98510.47
2022-09-28T16:22:28.987Z,98510.94
2022-09-28T16:25:31.789Z,98517.56
2022-09-28T16:28:52.876Z,98515.41
2022-09-28T16:31:55.698Z,98523.34
2022-09-28T16:35:23.065Z,98537.72
2022-09-28T16:38:25.752Z,98542.13
2022-09-28T16:41:30.292Z,98553.72
2022-09-28T16:44:35.834Z,98560.25
2022-09-28T16:47:39.502Z,98562.84
2022-09-28T16:50:42.134Z,98568.63
2022-09-28T16:54:02.913Z,98571.53
2022-09-28T16:57:07.542Z,98572.53
2022-09-28T17:00:19.638Z,98574.09
2022-09-28T17:03:23.438Z,98585.44
2022-09-28T17:06:27.470Z,98577.34
2022-09-28T17:09:30.136Z,98586.34
2022-09-28T17:12:32.813Z,98580.63
2022-09-28T17:15:37.542Z,98589.31
2022-09-28T17:18:40.505Z,98590.66
2022-09-28T17:21:43.187Z,98593.06
2022-09-28T17:24:46.738Z,98599.78
2022-09-28T17:27:50.461Z,98604.81
2022-09-28T17:30:55.050Z,98605.47
2022-09-28T17:33:58.464Z,98600.72
2022-09-28T17:37:01.288Z,98601.19
2022-09-28T17:40:13.708Z,98609.22
2022-09-28T17:43:16.346Z,98609.97
2022-09-28T17:46:28.470Z,98608.81
2022-09-28T17:49:31.165Z,98623.53
2022-09-28T17:52:33.887Z,98627.78
2022-09-28T17:55:38.280Z,98630.25
2022-09-28T17:58:41.927Z,98622.69
2022-09-28T18:01:48.643Z,98617.91
2022-09-28T18:04:52.768Z,98630.91
2022-09-28T18:07:58.942Z,98619.53
2022-09-28T18:11:03.471Z,98612.28
2022-09-28T18:14:11.070Z,98643.84
2022-09-28T18:17:21.796Z,98640.81
2022-09-28T18:20:25.151Z,98628.00
2022-09-28T18:23:31.681Z,98645.34
2022-09-28T18:26:35.138Z,98659.16
2022-09-28T18:29:38.121Z,98658.69
2022-09-28T18:32:42.451Z,98659.00
2022-09-28T18:36:10.992Z,98666.63
2022-09-28T18:39:14.421Z,98656.44
2022-09-28T18:42:17.132Z,98668.00
2022-09-28T18:45:20.089Z,98669.09
2022-09-28T18:48:27.692Z,98677.47
2022-09-28T18:51:30.569Z,98683.38
2022-09-28T18:54:33.452Z,98689.09
2022-09-28T18:57:36.903Z,98692.19
2022-09-28T19:00:40.466Z,98694.41
2022-09-28T19:03:44.813Z,98690.47
2022-09-28T19:06:51.742Z,98692.72
2022-09-28T19:09:54.489Z,98692.88
2022-09-28T19:12:57.420Z,98699.38
2022-09-28T19:16:00.525Z,98697.81
2022-09-28T19:19:06.619Z,98699.97
2022-09-28T19:22:09.758Z,98702.94
2022-09-28T19:25:13.612Z,98708.53
2022-09-28T19:28:16.301Z,98707.84
2022-09-28T19:31:19.349Z,98712.88
2022-09-28T19:34:24.360Z,98722.91
2022-09-28T19:37:27.202Z,98712.28
2022-09-28T19:40:30.153Z,98718.75
2022-09-28T19:43:34.940Z,98713.63
2022-09-28T19:46:40.416Z,98731.44
2022-09-28T19:49:44.992Z,98729.53
2022-09-28T19:52:47.794Z,98728.47
2022-09-28T19:55:52.773Z,98734.66
2022-09-28T19:58:55.556Z,98734.28
2022-09-28T20:02:01.315Z,98742.84
2022-09-28T20:05:06.346Z,98734.47
2022-09-28T20:08:09.742Z,98741.97
2022-09-28T20:11:13.168Z,98751.53
2022-09-28T20:14:16.173Z,98748.25
2022-09-28T20:17:19.261Z,98741.81
2022-09-28T20:20:23.426Z,98747.00
2022-09-28T20:23:27.303Z,98751.03
2022-09-28T20:26:30.454Z,98758.00
2022-09-28T20:29:33.748Z,98756.03
2022-09-28T20:32:36.978Z,98756.78
2022-09-28T20:35:44.228Z,98762.84
2022-09-28T20:38:48.717Z,98764.09
2022-09-28T20:41:51.715Z,98777.97
2022-09-28T20:44:54.466Z,98768.00
2022-09-28T20:47:57.179Z,98767.19
2022-09-28T20:51:03.156Z,98767.00
2022-09-28T20:54:06.389Z,98772.91
2022-09-28T20:57:17.548Z,98774.28
2022-09-28T21:00:20.495Z,98770.50
2022-09-28T21:03:23.559Z,98758.75
2022-09-28T21:06:29.451Z,98759.53
2022-09-28T21:09:33.319Z,98760.09
2022-09-28T21:12:37.149Z,98762.13
2022-09-28T21:15:39.882Z,98759.75
2022-09-28T21:18:43.639Z,98757.69
2022-09-28T21:21:48.423Z,98749.91
2022-09-28T21:24:51.474Z,98763.00
2022-09-28T21:27:54.497Z,98766.38
2022-09-28T21:30:57.502Z,98769.38
2022-09-28T21:34:00.508Z,98773.19
2022-09-28T21:37:04.853Z,98771.75
2022-09-28T21:40:10.146Z,98761.44
2022-09-28T21:43:13.131Z,98764.50
2022-09-28T21:46:15.970Z,98766.66
2022-09-28T21:49:18.712Z,98758.72
2022-09-28T21:52:23.029Z,98762.59
2022-09-28T21:55:26.133Z,98756.41
2022-09-28T21:58:31.049Z,98758.31
2022-09-28T22:01:34.132Z,98758.25
2022-09-28T22:04:36.872Z,98760.53
2022-09-28T22:07:42.654Z,98763.16
2022-09-28T22:10:45.509Z,98759.91
2022-09-28T22:13:50.339Z,98765.31
2022-09-28T22:16:53.206Z,98765.59
2022-09-28T22:19:56.242Z,98777.72
2022-09-28T22:23:00.623Z,98770.59
2022-09-28T22:26:08.291Z,98766.84
2022-09-28T22:29:11.815Z,98774.44
2022-09-28T22:32:14.549Z,98770.25
2022-09-28T22:35:17.654Z,98768.53
2022-09-28T22:38:24.061Z,98773.25
2022-09-28T22:41:27.233Z,98772.09
2022-09-28T22:44:30.104Z,98774.28
2022-09-28T22:47:32.865Z,98762.41
2022-09-28T22:50:35.961Z,98772.94
2022-09-28T22:53:40.200Z,98772.84
2022-09-28T22:56:44.556Z,98780.94
2022-09-28T22:59:47.717Z,98771.97
2022-09-28T23:02:50.447Z,98779.19
2022-09-28T23:05:54.349Z,98771.84
2022-09-28T23:08:58.549Z,98772.72
2022-09-28T23:12:01.584Z,98764.50
2022-09-28T23:15:04.719Z,98763.09
2022-09-28T23:18:08.427Z,98766.22
2022-09-28T23:21:15.112Z,98760.75
2022-09-28T23:24:19.412Z,98768.72
2022-09-28T23:27:22.103Z,98763.25
2022-09-28T23:30:25.224Z,98770.59
2022-09-28T23:33:28.009Z,98774.81
2022-09-28T23:36:31.474Z,98775.00
2022-09-28T23:39:35.464Z,98772.66
2022-09-28T23:42:38.202Z,98770.31
2022-09-28T23:45:42.323Z,98767.09
2022-09-28T23:48:44.994Z,98778.66
2022-09-28T23:51:48.130Z,98771.69
2022-09-28T23:54:52.157Z,98772.91
2022-09-28T23:57:56.959Z,98774.09
